sensor_id;sensor_type;location;lat;lon;timestamp;P1;durP1;ratioP1;P2;durP2;ratioP2
71821;SDS011;64096;52.548;13.406;2023-07-31T06:03:49;2.78;;;1.65;;
71821;SDS011;64096;52.548;13.406;2023-07-31T06:06:16;3.20;;;1.60;;
71821;SDS011;64096;52.548;13.406;2023-07-31T06:08:42;2.88;;;1.58;;
71821;SDS011;64096;52.548;13.406;2023-07-31T06:11:08;4.78;;;2.00;;
71821;SDS011;64096;52.548;13.406;2023-07-31T06:13:35;3.83;;;1.70;;
71821;SDS011;64096;52.548;13.406;2023-07-31T06:16:01;4.05;;;1.60;;
71821;SDS011;64096;52.548;13.406;2023-07-31T06:18:31;2.65;;;1.58;;
71821;SDS011;64096;52.548;13.406;2023-07-31T06:20:57;4.15;;;1.70;;
71821;SDS011;64096;52.548;13.406;2023-07-31T06:23:23;2.83;;;1.70;;
71821;SDS011;64096;52.548;13.406;2023-07-31T06:25:49;3.63;;;1.52;;
71821;SDS011;64096;52.548;13.406;2023-07-31T06:28:15;4.03;;;1.60;;
71821;SDS011;64096;52.548;13.406;2023-07-31T06:30:41;2.95;;;1.40;;
71821;SDS011;64096;52.548;13.406;2023-07-31T06:33:08;4.70;;;1.90;;
71821;SDS011;64096;52.548;13.406;2023-07-31T06:35:34;2.53;;;1.45;;
71821;SDS011;64096;52.548;13.406;2023-07-31T06:38:00;3.95;;;1.75;;
71821;SDS011;64096;52.548;13.406;2023-07-31T06:40:27;3.30;;;1.60;;
71821;SDS011;64096;52.548;13.406;2023-07-31T06:42:54;3.80;;;1.83;;
71821;SDS011;64096;52.548;13.406;2023-07-31T06:45:20;4.18;;;1.90;;
71821;SDS011;64096;52.548;13.406;2023-07-31T06:47:47;2.92;;;1.48;;
71821;SDS011;64096;52.548;13.406;2023-07-31T06:50:13;3.60;;;1.60;;
71821;SDS011;64096;52.548;13.406;2023-07-31T06:52:39;3.20;;;1.60;;
71821;SDS011;64096;52.548;13.406;2023-07-31T06:55:18;3.05;;;1.48;;
71821;SDS011;64096;52.548;13.406;2023-07-31T06:57:45;3.05;;;1.50;;
71821;SDS011;64096;52.548;13.406;2023-07-31T07:00:11;3.50;;;1.50;;
71821;SDS011;64096;52.548;13.406;2023-07-31T07:02:38;2.97;;;1.50;;
71821;SDS011;64096;52.548;13.406;2023-07-31T07:05:04;2.63;;;1.30;;
71821;SDS011;64096;52.548;13.406;2023-07-31T07:07:30;2.95;;;1.50;;
71821;SDS011;64096;52.548;13.406;2023-07-31T07:09:56;4.25;;;1.60;;
71821;SDS011;64096;52.548;13.406;2023-07-31T07:12:24;2.40;;;1.35;;
71821;SDS011;64096;52.548;13.406;2023-07-31T07:14:50;3.13;;;1.40;;
71821;SDS011;64096;52.548;13.406;2023-07-31T07:17:18;3.53;;;1.63;;
71821;SDS011;64096;52.548;13.406;2023-07-31T07:19:44;5.28;;;2.80;;
71821;SDS011;64096;52.548;13.406;2023-07-31T07:22:11;9.05;;;5.85;;
71821;SDS011;64096;52.548;13.406;2023-07-31T07:24:37;6.57;;;2.95;;
71821;SDS011;64096;52.548;13.406;2023-07-31T07:27:03;3.60;;;1.48;;
71821;SDS011;64096;52.548;13.406;2023-07-31T07:29:29;4.47;;;1.75;;
71821;SDS011;64096;52.548;13.406;2023-07-31T07:31:55;3.15;;;1.58;;
71821;SDS011;64096;52.548;13.406;2023-07-31T07:34:28;3.15;;;1.40;;
71821;SDS011;64096;52.548;13.406;2023-07-31T07:36:54;4.07;;;1.53;;
71821;SDS011;64096;52.548;13.406;2023-07-31T07:39:20;3.50;;;1.67;;
71821;SDS011;64096;52.548;13.406;2023-07-31T07:41:46;3.15;;;1.40;;
71821;SDS011;64096;52.548;13.406;2023-07-31T07:44:13;3.70;;;1.60;;
71821;SDS011;64096;52.548;13.406;2023-07-31T07:46:39;2.47;;;1.20;;
71821;SDS011;64096;52.548;13.406;2023-07-31T07:49:05;3.15;;;1.38;;
71821;SDS011;64096;52.548;13.406;2023-07-31T07:51:32;3.28;;;1.70;;
71821;SDS011;64096;52.548;13.406;2023-07-31T07:53:58;3.17;;;1.50;;
71821;SDS011;64096;52.548;13.406;2023-07-31T07:56:25;3.50;;;1.50;;
71821;SDS011;64096;52.548;13.406;2023-07-31T07:58:51;3.20;;;1.75;;
71821;SDS011;64096;52.548;13.406;2023-07-31T08:01:17;3.10;;;1.40;;
71821;SDS011;64096;52.548;13.406;2023-07-31T08:03:43;3.13;;;1.50;;
71821;SDS011;64096;52.548;13.406;2023-07-31T08:06:09;4.30;;;2.00;;
71821;SDS011;64096;52.548;13.406;2023-07-31T08:08:36;3.63;;;1.48;;
71821;SDS011;64096;52.548;13.406;2023-07-31T08:11:02;2.22;;;1.20;;
71821;SDS011;64096;52.548;13.406;2023-07-31T08:13:28;2.78;;;1.23;;
71821;SDS011;64096;52.548;13.406;2023-07-31T08:15:54;4.32;;;1.33;;
71821;SDS011;64096;52.548;13.406;2023-07-31T08:18:20;2.78;;;1.20;;
71821;SDS011;64096;52.548;13.406;2023-07-31T08:20:46;2.88;;;1.20;;
71821;SDS011;64096;52.548;13.406;2023-07-31T08:23:12;2.65;;;1.40;;
71821;SDS011;64096;52.548;13.406;2023-07-31T08:25:38;2.30;;;1.30;;
71821;SDS011;64096;52.548;13.406;2023-07-31T08:28:05;1.92;;;1.00;;
71821;SDS011;64096;52.548;13.406;2023-07-31T08:30:31;1.75;;;0.88;;
71821;SDS011;64096;52.548;13.406;2023-07-31T08:33:01;3.05;;;1.23;;
71821;SDS011;64096;52.548;13.406;2023-07-31T08:35:27;2.60;;;1.00;;
71821;SDS011;64096;52.548;13.406;2023-07-31T08:37:54;1.98;;;1.00;;
71821;SDS011;64096;52.548;13.406;2023-07-31T08:40:20;3.42;;;1.00;;
71821;SDS011;64096;52.548;13.406;2023-07-31T08:42:50;2.08;;;1.05;;
71821;SDS011;64096;52.548;13.406;2023-07-31T08:45:18;1.80;;;0.98;;
71821;SDS011;64096;52.548;13.406;2023-07-31T08:47:51;3.60;;;1.17;;
71821;SDS011;64096;52.548;13.406;2023-07-31T08:50:18;2.83;;;1.27;;
71821;SDS011;64096;52.548;13.406;2023-07-31T08:52:45;3.22;;;1.48;;
71821;SDS011;64096;52.548;13.406;2023-07-31T08:55:11;2.17;;;1.00;;
71821;SDS011;64096;52.548;13.406;2023-07-31T08:57:37;2.50;;;1.17;;
71821;SDS011;64096;52.548;13.406;2023-07-31T09:00:05;2.33;;;1.10;;
71821;SDS011;64096;52.548;13.406;2023-07-31T09:02:33;1.52;;;0.95;;
71821;SDS011;64096;52.548;13.406;2023-07-31T09:05:01;2.30;;;1.30;;
71821;SDS011;64096;52.548;13.406;2023-07-31T09:07:28;2.47;;;1.10;;
71821;SDS011;64096;52.548;13.406;2023-07-31T09:09:54;1.65;;;1.05;;
71821;SDS011;64096;52.548;13.406;2023-07-31T09:12:21;2.40;;;1.10;;
71821;SDS011;64096;52.548;13.406;2023-07-31T09:14:47;2.15;;;1.02;;
71821;SDS011;64096;52.548;13.406;2023-07-31T09:17:13;3.58;;;1.35;;
71821;SDS011;64096;52.548;13.406;2023-07-31T09:19:39;1.90;;;1.00;;
71821;SDS011;64096;52.548;13.406;2023-07-31T09:22:05;2.58;;;1.20;;
71821;SDS011;64096;52.548;13.406;2023-07-31T09:24:32;2.20;;;1.10;;
71821;SDS011;64096;52.548;13.406;2023-07-31T09:27:00;2.80;;;1.30;;
71821;SDS011;64096;52.548;13.406;2023-07-31T09:29:26;1.88;;;0.93;;
71821;SDS011;64096;52.548;13.406;2023-07-31T09:31:53;2.40;;;0.90;;
71821;SDS011;64096;52.548;13.406;2023-07-31T09:34:20;1.55;;;0.70;;
71821;SDS011;64096;52.548;13.406;2023-07-31T09:36:47;1.38;;;0.70;;
71821;SDS011;64096;52.548;13.406;2023-07-31T09:39:13;2.05;;;0.90;;
71821;SDS011;64096;52.548;13.406;2023-07-31T09:41:46;2.90;;;1.08;;
71821;SDS011;64096;52.548;13.406;2023-07-31T09:44:12;2.05;;;1.00;;
71821;SDS011;64096;52.548;13.406;2023-07-31T09:46:38;1.40;;;0.70;;
71821;SDS011;64096;52.548;13.406;2023-07-31T09:49:06;2.00;;;0.73;;
71821;SDS011;64096;52.548;13.406;2023-07-31T09:51:32;1.23;;;0.80;;
71821;SDS011;64096;52.548;13.406;2023-07-31T09:54:03;0.90;;;0.63;;
71821;SDS011;64096;52.548;13.406;2023-07-31T09:56:29;1.88;;;0.90;;
71821;SDS011;64096;52.548;13.406;2023-07-31T09:58:57;2.17;;;0.98;;
71821;SDS011;64096;52.548;13.406;2023-07-31T10:01:23;1.38;;;0.80;;
71821;SDS011;64096;52.548;13.406;2023-07-31T10:03:49;1.30;;;0.80;;
71821;SDS011;64096;52.548;13.406;2023-07-31T10:06:15;1.70;;;0.90;;
71821;SDS011;64096;52.548;13.406;2023-07-31T10:08:44;2.05;;;1.00;;
71821;SDS011;64096;52.548;13.406;2023-07-31T10:11:11;2.85;;;1.10;;
71821;SDS011;64096;52.548;13.406;2023-07-31T10:13:39;2.10;;;0.88;;
71821;SDS011;64096;52.548;13.406;2023-07-31T10:16:06;2.42;;;0.93;;
71821;SDS011;64096;52.548;13.406;2023-07-31T10:18:32;2.22;;;1.30;;
71821;SDS011;64096;52.548;13.406;2023-07-31T10:20:59;3.05;;;1.58;;
71821;SDS011;64096;52.548;13.406;2023-07-31T10:23:25;3.58;;;1.45;;
71821;SDS011;64096;52.548;13.406;2023-07-31T10:25:52;2.70;;;1.35;;
71821;SDS011;64096;52.548;13.406;2023-07-31T10:28:19;3.17;;;1.65;;
71821;SDS011;64096;52.548;13.406;2023-07-31T10:30:46;3.45;;;1.63;;
71821;SDS011;64096;52.548;13.406;2023-07-31T10:33:12;3.22;;;1.90;;
71821;SDS011;64096;52.548;13.406;2023-07-31T10:35:39;2.58;;;1.60;;
71821;SDS011;64096;52.548;13.406;2023-07-31T10:38:11;3.00;;;1.80;;
71821;SDS011;64096;52.548;13.406;2023-07-31T10:40:37;3.40;;;1.80;;
71821;SDS011;64096;52.548;13.406;2023-07-31T10:43:04;3.63;;;1.98;;
71821;SDS011;64096;52.548;13.406;2023-07-31T10:48:00;3.72;;;2.00;;
71821;SDS011;64096;52.548;13.406;2023-07-31T10:50:27;4.85;;;2.20;;
71821;SDS011;64096;52.548;13.406;2023-07-31T10:52:54;4.63;;;2.00;;
71821;SDS011;64096;52.548;13.406;2023-07-31T10:57:50;4.75;;;2.60;;
71821;SDS011;64096;52.548;13.406;2023-07-31T11:00:22;4.07;;;1.90;;
71821;SDS011;64096;52.548;13.406;2023-07-31T11:05:41;3.72;;;2.10;;
71821;SDS011;64096;52.548;13.406;2023-07-31T11:08:29;3.75;;;2.10;;
71821;SDS011;64096;52.548;13.406;2023-07-31T11:16:18;5.25;;;2.85;;
71821;SDS011;64096;52.548;13.406;2023-07-31T11:18:45;5.72;;;2.30;;
71821;SDS011;64096;52.548;13.406;2023-07-31T11:21:16;4.75;;;2.63;;
71821;SDS011;64096;52.548;13.406;2023-07-31T11:23:50;3.00;;;1.80;;
71821;SDS011;64096;52.548;13.406;2023-07-31T11:26:16;4.55;;;2.30;;
71821;SDS011;64096;52.548;13.406;2023-07-31T11:28:42;3.83;;;1.92;;
71821;SDS011;64096;52.548;13.406;2023-07-31T11:31:09;4.85;;;2.47;;
71821;SDS011;64096;52.548;13.406;2023-07-31T11:33:36;4.68;;;2.30;;
71821;SDS011;64096;52.548;13.406;2023-07-31T11:36:02;3.38;;;1.83;;
71821;SDS011;64096;52.548;13.406;2023-07-31T11:38:29;3.85;;;2.10;;
71821;SDS011;64096;52.548;13.406;2023-07-31T11:40:56;4.07;;;2.17;;
71821;SDS011;64096;52.548;13.406;2023-07-31T11:43:23;4.20;;;2.17;;
71821;SDS011;64096;52.548;13.406;2023-07-31T11:45:50;4.18;;;2.30;;
71821;SDS011;64096;52.548;13.406;2023-07-31T11:48:24;4.47;;;2.35;;
71821;SDS011;64096;52.548;13.406;2023-07-31T11:50:52;3.72;;;2.30;;
71821;SDS011;64096;52.548;13.406;2023-07-31T11:53:19;4.53;;;2.42;;
71821;SDS011;64096;52.548;13.406;2023-07-31T11:55:46;4.28;;;2.13;;
71821;SDS011;64096;52.548;13.406;2023-07-31T11:58:13;4.30;;;2.08;;
71821;SDS011;64096;52.548;13.406;2023-07-31T12:00:40;4.22;;;2.17;;
71821;SDS011;64096;52.548;13.406;2023-07-31T12:03:06;4.63;;;2.45;;
71821;SDS011;64096;52.548;13.406;2023-07-31T12:05:32;4.22;;;2.13;;
71821;SDS011;64096;52.548;13.406;2023-07-31T12:07:58;3.33;;;1.95;;
71821;SDS011;64096;52.548;13.406;2023-07-31T12:13:00;4.90;;;1.92;;
71821;SDS011;64096;52.548;13.406;2023-07-31T12:17:52;3.80;;;2.00;;
71821;SDS011;64096;52.548;13.406;2023-07-31T12:20:20;3.80;;;1.80;;
71821;SDS011;64096;52.548;13.406;2023-07-31T12:22:46;4.18;;;1.90;;
71821;SDS011;64096;52.548;13.406;2023-07-31T12:25:15;3.75;;;2.10;;
71821;SDS011;64096;52.548;13.406;2023-07-31T12:27:44;4.97;;;2.40;;
71821;SDS011;64096;52.548;13.406;2023-07-31T12:30:26;3.30;;;1.88;;
71821;SDS011;64096;52.548;13.406;2023-07-31T12:32:52;3.95;;;2.15;;
71821;SDS011;64096;52.548;13.406;2023-07-31T12:35:18;4.55;;;2.28;;
71821;SDS011;64096;52.548;13.406;2023-07-31T12:37:44;4.20;;;2.38;;
71821;SDS011;64096;52.548;13.406;2023-07-31T12:40:11;4.55;;;2.08;;
71821;SDS011;64096;52.548;13.406;2023-07-31T12:42:37;3.90;;;2.35;;
71821;SDS011;64096;52.548;13.406;2023-07-31T12:45:03;4.50;;;1.88;;
71821;SDS011;64096;52.548;13.406;2023-07-31T12:47:30;3.47;;;2.10;;
71821;SDS011;64096;52.548;13.406;2023-07-31T12:49:56;3.53;;;2.03;;
71821;SDS011;64096;52.548;13.406;2023-07-31T12:52:22;4.20;;;2.28;;
71821;SDS011;64096;52.548;13.406;2023-07-31T12:54:48;4.55;;;2.10;;
71821;SDS011;64096;52.548;13.406;2023-07-31T12:57:14;3.63;;;1.90;;
71821;SDS011;64096;52.548;13.406;2023-07-31T12:59:40;6.22;;;1.90;;
71821;SDS011;64096;52.548;13.406;2023-07-31T13:02:06;3.92;;;1.92;;
71821;SDS011;64096;52.548;13.406;2023-07-31T13:04:32;4.55;;;2.00;;
71821;SDS011;64096;52.548;13.406;2023-07-31T13:06:58;3.40;;;1.55;;
71821;SDS011;64096;52.548;13.406;2023-07-31T13:09:24;4.00;;;1.80;;
71821;SDS011;64096;52.548;13.406;2023-07-31T13:11:50;4.47;;;1.95;;
71821;SDS011;64096;52.548;13.406;2023-07-31T13:14:16;4.63;;;1.90;;
71821;SDS011;64096;52.548;13.406;2023-07-31T13:16:42;4.13;;;1.65;;
71821;SDS011;64096;52.548;13.406;2023-07-31T13:19:08;2.40;;;1.30;;
71821;SDS011;64096;52.548;13.406;2023-07-31T13:21:34;2.42;;;1.30;;
71821;SDS011;64096;52.548;13.406;2023-07-31T13:24:02;2.38;;;1.15;;
71821;SDS011;64096;52.548;13.406;2023-07-31T13:26:29;4.53;;;1.67;;
71821;SDS011;64096;52.548;13.406;2023-07-31T13:28:55;2.72;;;1.38;;
71821;SDS011;64096;52.548;13.406;2023-07-31T13:31:21;3.67;;;1.40;;
71821;SDS011;64096;52.548;13.406;2023-07-31T13:33:48;4.05;;;1.83;;
71821;SDS011;64096;52.548;13.406;2023-07-31T13:36:14;3.72;;;1.60;;
71821;SDS011;64096;52.548;13.406;2023-07-31T13:38:40;3.15;;;1.23;;
71821;SDS011;64096;52.548;13.406;2023-07-31T13:41:06;2.88;;;1.30;;
71821;SDS011;64096;52.548;13.406;2023-07-31T13:43:32;3.13;;;1.70;;
71821;SDS011;64096;52.548;13.406;2023-07-31T13:45:58;3.28;;;1.65;;
71821;SDS011;64096;52.548;13.406;2023-07-31T13:48:31;3.03;;;1.77;;
71821;SDS011;64096;52.548;13.406;2023-07-31T13:50:57;3.38;;;1.80;;
71821;SDS011;64096;52.548;13.406;2023-07-31T13:53:23;3.67;;;1.95;;
71821;SDS011;64096;52.548;13.406;2023-07-31T13:55:49;3.65;;;1.70;;
71821;SDS011;64096;52.548;13.406;2023-07-31T13:58:16;3.90;;;2.20;;
